createdAt,value
2018-03-07T00:00:18.136Z,3.20
2018-03-07T00:02:45.143Z,3.33
2018-03-07T00:05:12.151Z,2.60
2018-03-07T00:07:39.208Z,2.90
2018-03-07T00:10:07.220Z,3.20
2018-03-07T00:12:34.251Z,3.03
2018-03-07T00:15:02.869Z,2.40
2018-03-07T00:17:30.355Z,2.77
2018-03-07T00:19:57.379Z,2.60
2018-03-07T00:22:24.452Z,2.93
2018-03-07T00:24:52.241Z,2.90
2018-03-07T00:27:19.258Z,3.10
2018-03-07T00:29:46.340Z,2.47
2018-03-07T00:32:13.363Z,2.97
2018-03-07T00:34:40.389Z,2.97
2018-03-07T00:37:07.459Z,2.70
2018-03-07T00:39:34.478Z,3.20
2018-03-07T00:42:01.499Z,3.17
2018-03-07T00:44:28.573Z,3.80
2018-03-07T00:46:56.649Z,3.10
2018-03-07T00:49:23.669Z,3.43
2018-03-07T00:51:50.738Z,3.40
2018-03-07T00:54:18.717Z,4.00
2018-03-07T00:56:45.830Z,4.10
2018-03-07T00:59:12.898Z,3.53
2018-03-07T01:01:39.910Z,3.50
2018-03-07T01:04:06.928Z,3.87
2018-03-07T01:06:34.017Z,3.67
2018-03-07T01:09:01.795Z,3.47
2018-03-07T01:11:28.816Z,3.27
2018-03-07T01:13:55.908Z,3.97
2018-03-07T01:16:23.004Z,3.03
2018-03-07T01:18:50.024Z,2.63
2018-03-07T01:21:17.098Z,2.67
2018-03-07T01:26:22.646Z,4.03
2018-03-07T01:28:50.485Z,3.80
2018-03-07T01:31:18.441Z,3.50
2018-03-07T01:33:45.509Z,3.80
2018-03-07T01:36:12.525Z,3.57
2018-03-07T01:38:39.637Z,3.77
2018-03-07T01:41:06.705Z,2.40
2018-03-07T01:43:33.716Z,2.70
2018-03-07T01:46:01.681Z,3.03
2018-03-07T01:48:28.742Z,3.77
2018-03-07T01:50:56.629Z,3.40
2018-03-07T01:53:24.580Z,3.33
2018-03-07T01:55:52.618Z,3.80
2018-03-07T01:58:19.641Z,3.50
2018-03-07T02:00:46.650Z,3.50
2018-03-07T02:03:14.171Z,4.27
2018-03-07T02:05:41.190Z,3.80
2018-03-07T02:08:08.245Z,4.13
2018-03-07T02:10:35.268Z,3.40
2018-03-07T02:13:02.296Z,4.13
2018-03-07T02:15:29.316Z,4.43
2018-03-07T02:17:56.381Z,4.70
2018-03-07T02:20:23.388Z,4.10
2018-03-07T02:22:50.392Z,4.60
2018-03-07T02:25:17.457Z,4.10
2018-03-07T02:27:44.460Z,4.70
2018-03-07T02:30:11.473Z,4.33
2018-03-07T02:32:38.553Z,4.37
2018-03-07T02:35:05.558Z,4.10
2018-03-07T02:37:32.603Z,3.90
2018-03-07T02:39:59.681Z,4.63
2018-03-07T02:42:26.665Z,4.60
2018-03-07T02:44:53.699Z,4.43
2018-03-07T02:49:59.252Z,4.95
2018-03-07T02:52:27.260Z,4.30
2018-03-07T02:54:54.280Z,4.07
2018-03-07T02:57:21.287Z,4.20
2018-03-07T02:59:48.364Z,4.80
2018-03-07T03:02:15.373Z,4.17
2018-03-07T03:04:45.030Z,4.00
2018-03-07T03:07:12.113Z,4.43
2018-03-07T03:09:39.110Z,3.97
2018-03-07T03:12:06.126Z,4.50
2018-03-07T03:14:33.201Z,5.17
2018-03-07T03:17:00.469Z,5.20
2018-03-07T03:19:27.486Z,4.83
2018-03-07T03:21:54.705Z,3.87
2018-03-07T03:24:21.719Z,4.00
2018-03-07T03:26:48.729Z,4.00
2018-03-07T03:29:16.626Z,4.43
2018-03-07T03:31:43.682Z,4.17
2018-03-07T03:34:10.679Z,3.33
2018-03-07T03:36:37.762Z,3.83
2018-03-07T03:39:04.767Z,3.50
2018-03-07T03:41:32.631Z,3.73
2018-03-07T03:43:59.700Z,3.63
2018-03-07T03:46:27.605Z,3.40
2018-03-07T03:48:54.620Z,3.47
2018-03-07T03:51:21.689Z,3.00
2018-03-07T03:53:48.695Z,2.87
2018-03-07T03:56:15.831Z,3.60
2018-03-07T03:58:42.893Z,2.87
2018-03-07T04:01:09.911Z,3.10
2018-03-07T04:03:36.913Z,3.00
2018-03-07T04:06:04.569Z,2.80
2018-03-07T04:08:31.591Z,3.00
2018-03-07T04:10:58.603Z,3.20
2018-03-07T04:16:06.276Z,3.47
2018-03-07T04:18:33.352Z,3.43
2018-03-07T04:21:00.437Z,3.30
2018-03-07T04:23:28.411Z,3.43
2018-03-07T04:25:55.572Z,2.97
2018-03-07T04:28:22.693Z,3.27
2018-03-07T04:30:49.707Z,3.40
2018-03-07T04:33:16.776Z,3.03
2018-03-07T04:35:46.744Z,3.53
2018-03-07T04:38:13.757Z,2.90
2018-03-07T04:40:40.872Z,3.43
2018-03-07T04:43:07.855Z,2.93
2018-03-07T04:45:35.751Z,2.97
2018-03-07T04:48:02.825Z,3.73
2018-03-07T04:50:29.835Z,3.10
2018-03-07T04:52:56.848Z,3.60
2018-03-07T04:55:23.926Z,3.13
2018-03-07T04:57:50.933Z,2.57
2018-03-07T05:00:18.990Z,2.23
2018-03-07T05:02:46.002Z,2.37
2018-03-07T05:05:13.837Z,2.37
2018-03-07T05:07:40.858Z,3.73
2018-03-07T05:10:07.944Z,3.83
2018-03-07T05:12:35.004Z,3.37
2018-03-07T05:15:02.968Z,4.03
2018-03-07T05:17:30.918Z,4.60
2018-03-07T05:19:58.028Z,4.73
2018-03-07T05:22:25.040Z,4.00
2018-03-07T05:24:52.140Z,4.63
2018-03-07T05:27:19.154Z,4.60
2018-03-07T05:29:46.160Z,4.40
2018-03-07T05:32:13.227Z,4.40
2018-03-07T05:34:41.194Z,4.83
2018-03-07T05:37:08.203Z,4.73
2018-03-07T05:42:13.747Z,5.15
2018-03-07T05:44:40.805Z,3.67
2018-03-07T05:47:07.819Z,5.10
2018-03-07T05:49:35.096Z,4.63
2018-03-07T05:52:02.206Z,4.50
2018-03-07T05:54:29.230Z,4.40
2018-03-07T05:56:56.257Z,4.83
2018-03-07T05:59:25.303Z,5.90
2018-03-07T06:01:50.348Z,4.37
2018-03-07T06:04:18.255Z,4.13
2018-03-07T06:06:45.318Z,4.40
2018-03-07T06:09:13.055Z,4.17
2018-03-07T06:11:40.969Z,4.80
2018-03-07T06:14:11.448Z,4.97
2018-03-07T06:16:41.734Z,5.10
2018-03-07T06:19:08.809Z,5.40
2018-03-07T06:21:36.758Z,4.90
2018-03-07T06:24:02.824Z,4.97
2018-03-07T06:26:31.837Z,4.80
2018-03-07T06:28:58.850Z,4.53
2018-03-07T06:31:25.881Z,4.87
2018-03-07T06:33:52.952Z,5.20
2018-03-07T06:36:20.236Z,4.07
2018-03-07T06:38:47.352Z,4.40
2018-03-07T06:41:14.436Z,5.20
2018-03-07T06:43:41.457Z,5.10
2018-03-07T06:46:08.476Z,5.27
2018-03-07T06:48:36.509Z,4.93
2018-03-07T06:51:03.523Z,5.63
2018-03-07T06:53:30.542Z,5.30
2018-03-07T06:55:57.613Z,5.07
2018-03-07T06:58:24.631Z,5.50
2018-03-07T07:00:51.653Z,5.57
2018-03-07T07:03:18.727Z,5.70
2018-03-07T07:05:45.734Z,5.90
2018-03-07T07:10:51.287Z,9.05
2018-03-07T07:13:18.319Z,5.87
2018-03-07T07:15:45.341Z,5.63
2018-03-07T07:18:12.402Z,5.37
2018-03-07T07:20:39.415Z,5.10
2018-03-07T07:23:06.419Z,4.87
2018-03-07T07:25:34.315Z,4.83
2018-03-07T07:28:01.319Z,5.33
2018-03-07T07:30:29.262Z,5.97
2018-03-07T07:32:56.350Z,5.10
2018-03-07T07:35:23.778Z,5.10
2018-03-07T07:37:50.789Z,5.07
2018-03-07T07:40:17.857Z,5.20
2018-03-07T07:42:44.869Z,5.10
2018-03-07T07:45:11.898Z,5.57
2018-03-07T07:47:38.978Z,5.50
2018-03-07T07:50:05.992Z,4.87
2018-03-07T07:52:33.006Z,4.93
2018-03-07T07:55:00.904Z,5.57
2018-03-07T07:57:27.925Z,5.23
2018-03-07T07:59:54.931Z,5.20
2018-03-07T08:02:22.024Z,4.60
2018-03-07T08:04:49.024Z,4.40
2018-03-07T08:07:16.093Z,4.57
2018-03-07T08:09:43.106Z,5.70
2018-03-07T08:12:10.116Z,5.33
2018-03-07T08:14:37.132Z,4.27
2018-03-07T08:17:04.203Z,4.70
2018-03-07T08:19:31.213Z,4.20
2018-03-07T08:21:58.636Z,3.80
2018-03-07T08:24:25.648Z,4.00
2018-03-07T08:26:53.652Z,4.30
2018-03-07T08:29:20.656Z,4.97
2018-03-07T08:31:47.751Z,4.80
2018-03-07T08:36:53.292Z,6.47
2018-03-07T08:39:20.304Z,5.57
2018-03-07T08:41:47.308Z,6.47
2018-03-07T08:44:14.402Z,7.37
2018-03-07T08:46:41.412Z,7.70
2018-03-07T08:49:08.427Z,7.40
2018-03-07T08:51:35.515Z,7.20
2018-03-07T08:54:02.521Z,7.07
2018-03-07T08:56:29.900Z,6.90
2018-03-07T08:58:56.608Z,7.33
2018-03-07T09:01:23.623Z,6.37
2018-03-07T09:03:50.636Z,7.07
2018-03-07T09:06:17.720Z,7.27
2018-03-07T09:08:44.736Z,6.07
2018-03-07T09:11:11.746Z,6.73
2018-03-07T09:13:39.144Z,6.23
2018-03-07T09:16:07.107Z,6.63
2018-03-07T09:18:34.466Z,5.60
2018-03-07T09:21:01.635Z,6.80
2018-03-07T09:23:28.657Z,6.40
2018-03-07T09:25:55.669Z,5.47
2018-03-07T09:28:24.376Z,5.90
2018-03-07T09:30:51.396Z,6.43
2018-03-07T09:33:18.401Z,6.13
2018-03-07T09:35:45.477Z,5.77
2018-03-07T09:38:12.487Z,6.93
2018-03-07T09:40:39.529Z,6.30
2018-03-07T09:43:06.596Z,6.30
2018-03-07T09:45:34.567Z,6.30
2018-03-07T09:48:01.583Z,5.50
2018-03-07T09:50:28.644Z,5.87
2018-03-07T09:52:56.459Z,5.27
2018-03-07T09:55:23.465Z,5.97
2018-03-07T09:57:50.545Z,5.70
2018-03-07T10:02:56.148Z,6.40
2018-03-07T10:05:23.157Z,5.87
2018-03-07T10:07:50.167Z,5.57
2018-03-07T10:10:17.238Z,5.57
2018-03-07T10:12:44.258Z,6.13
2018-03-07T10:15:11.265Z,5.50
2018-03-07T10:17:38.341Z,5.70
2018-03-07T10:20:05.490Z,5.70
2018-03-07T10:22:32.494Z,5.73
2018-03-07T10:24:59.568Z,5.33
2018-03-07T10:27:26.575Z,6.27
2018-03-07T10:29:53.588Z,5.40
2018-03-07T10:32:20.654Z,6.00
2018-03-07T10:34:47.667Z,6.27
2018-03-07T10:37:14.696Z,5.03
2018-03-07T10:39:41.760Z,5.80
2018-03-07T10:42:08.775Z,5.47
2018-03-07T10:44:35.813Z,5.53
2018-03-07T10:47:02.870Z,5.40
2018-03-07T10:49:29.972Z,5.67
2018-03-07T10:51:56.994Z,4.93
2018-03-07T10:54:24.069Z,4.87
2018-03-07T10:56:51.077Z,5.00
2018-03-07T10:59:18.104Z,5.23
2018-03-07T11:01:45.168Z,5.10
2018-03-07T11:04:14.341Z,4.80
2018-03-07T11:06:39.704Z,5.43
2018-03-07T11:09:06.771Z,5.23
2018-03-07T11:11:33.788Z,5.30
2018-03-07T11:14:00.805Z,5.00
2018-03-07T11:19:06.368Z,5.50
2018-03-07T11:21:33.423Z,4.93
2018-03-07T11:24:00.434Z,6.10
2018-03-07T11:26:27.449Z,6.33
2018-03-07T11:28:54.529Z,6.20
2018-03-07T11:31:21.630Z,6.33
2018-03-07T11:33:48.672Z,5.90
2018-03-07T11:36:16.700Z,5.33
2018-03-07T11:38:43.721Z,5.13
2018-03-07T11:41:10.735Z,4.67
2018-03-07T11:43:37.799Z,4.63
2018-03-07T11:46:04.811Z,4.30
2018-03-07T11:48:31.830Z,4.90
2018-03-07T11:50:58.908Z,4.50
2018-03-07T11:53:25.911Z,4.90
2018-03-07T11:55:52.933Z,6.53
2018-03-07T11:58:19.991Z,5.27
2018-03-07T12:00:47.018Z,5.53
2018-03-07T12:03:14.026Z,4.60
2018-03-07T12:05:41.116Z,5.80
2018-03-07T12:08:08.121Z,5.77
2018-03-07T12:10:35.135Z,4.90
2018-03-07T12:13:02.287Z,4.63
2018-03-07T12:15:29.299Z,4.20
2018-03-07T12:17:57.140Z,5.50
2018-03-07T12:20:24.197Z,5.20
2018-03-07T12:22:51.209Z,4.53
2018-03-07T12:25:18.218Z,4.70
2018-03-07T12:27:45.281Z,4.73
2018-03-07T12:30:12.304Z,5.17
2018-03-07T12:32:39.311Z,4.43
2018-03-07T12:35:06.385Z,4.73
2018-03-07T12:37:33.388Z,4.80
2018-03-07T12:42:38.935Z,5.87
2018-03-07T12:45:05.943Z,5.23
2018-03-07T12:47:32.986Z,5.30
2018-03-07T12:50:00.045Z,3.87
2018-03-07T12:52:27.058Z,4.63
2018-03-07T12:54:54.062Z,5.03
2018-03-07T12:57:21.119Z,5.00
2018-03-07T12:59:48.132Z,4.90
2018-03-07T13:02:15.142Z,4.33
2018-03-07T13:04:42.210Z,4.40
2018-03-07T13:07:10.163Z,4.43
2018-03-07T13:09:37.184Z,4.30
2018-03-07T13:12:04.260Z,4.17
2018-03-07T13:14:31.263Z,4.60
2018-03-07T13:16:58.277Z,5.10
2018-03-07T13:19:25.345Z,4.47
2018-03-07T13:21:52.354Z,4.43
2018-03-07T13:24:19.361Z,4.17
2018-03-07T13:26:46.424Z,4.10
2018-03-07T13:29:13.436Z,5.20
2018-03-07T13:31:40.445Z,4.63
2018-03-07T13:34:07.515Z,4.70
2018-03-07T13:36:34.539Z,5.13
2018-03-07T13:39:01.549Z,3.83
2018-03-07T13:41:29.446Z,3.50
2018-03-07T13:43:56.454Z,1.93
2018-03-07T13:46:23.931Z,1.50
2018-03-07T13:48:50.997Z,1.40
2018-03-07T13:51:18.027Z,1.20
2018-03-07T13:53:45.053Z,0.83
2018-03-07T13:56:12.947Z,1.00
2018-03-07T13:58:39.967Z,1.20
2018-03-07T14:01:06.982Z,1.73
2018-03-07T14:03:34.737Z,1.73
2018-03-07T14:08:40.280Z,1.60
2018-03-07T14:11:07.287Z,0.80
2018-03-07T14:13:34.309Z,0.90
2018-03-07T14:16:01.373Z,0.77
2018-03-07T14:18:28.378Z,0.97
2018-03-07T14:20:55.382Z,0.73
2018-03-07T14:23:22.456Z,1.00
2018-03-07T14:25:49.487Z,0.93
2018-03-07T14:28:16.497Z,1.10
2018-03-07T14:30:43.568Z,1.97
2018-03-07T14:33:10.837Z,2.40
2018-03-07T14:35:37.865Z,3.10
2018-03-07T14:38:04.941Z,2.00
2018-03-07T14:40:31.954Z,1.87
2018-03-07T14:42:58.970Z,1.50
2018-03-07T14:45:26.042Z,3.20
2018-03-07T14:47:53.067Z,5.17
2018-03-07T14:50:20.077Z,4.50
2018-03-07T14:52:48.130Z,4.20
2018-03-07T14:55:15.240Z,4.13
2018-03-07T14:57:42.258Z,3.37
2018-03-07T15:00:09.329Z,4.33
2018-03-07T15:02:36.351Z,3.10
2018-03-07T15:05:03.365Z,2.83
2018-03-07T15:07:30.830Z,3.73
2018-03-07T15:09:57.851Z,2.30
2018-03-07T15:12:24.963Z,2.40
2018-03-07T15:14:52.040Z,3.43
2018-03-07T15:17:19.054Z,3.77
2018-03-07T15:19:46.080Z,4.10
2018-03-07T15:22:13.153Z,2.87
2018-03-07T15:24:40.169Z,4.30
2018-03-07T15:27:07.191Z,3.67
2018-03-07T15:29:34.273Z,2.90
2018-03-07T15:34:40.770Z,3.80
2018-03-07T15:37:07.797Z,2.33
2018-03-07T15:39:34.823Z,3.07
2018-03-07T15:42:02.715Z,2.30
2018-03-07T15:44:29.736Z,3.17
2018-03-07T15:46:56.761Z,2.50
2018-03-07T15:49:23.934Z,2.97
2018-03-07T15:51:50.956Z,2.27
2018-03-07T15:54:17.958Z,2.13
2018-03-07T15:56:45.042Z,2.97
2018-03-07T15:59:12.057Z,2.67
2018-03-07T16:01:39.073Z,2.77
2018-03-07T16:04:06.161Z,2.77
2018-03-07T16:06:33.178Z,3.10
2018-03-07T16:09:00.191Z,2.90
2018-03-07T16:11:28.119Z,2.30
2018-03-07T16:13:55.143Z,2.40
2018-03-07T16:16:22.170Z,2.50
2018-03-07T16:18:49.259Z,2.77
2018-03-07T16:21:16.621Z,2.90
2018-03-07T16:23:43.621Z,3.00
2018-03-07T16:26:10.687Z,3.60
2018-03-07T16:28:37.698Z,3.30
2018-03-07T16:31:04.725Z,10.30
2018-03-07T16:33:31.803Z,14.30
2018-03-07T16:35:59.664Z,9.03
2018-03-07T16:38:27.635Z,6.30
2018-03-07T16:40:54.720Z,6.37
2018-03-07T16:43:21.736Z,4.97
2018-03-07T16:45:48.769Z,5.00
2018-03-07T16:48:15.880Z,4.87
2018-03-07T16:50:42.890Z,4.87
2018-03-07T16:53:09.913Z,4.87
2018-03-07T16:55:36.980Z,5.37
2018-03-07T17:00:42.557Z,7.10
2018-03-07T17:03:09.585Z,6.13
2018-03-07T17:05:37.547Z,5.73
2018-03-07T17:08:04.619Z,6.40
2018-03-07T17:13:09.805Z,7.50
2018-03-07T17:15:37.774Z,6.93
2018-03-07T17:18:04.901Z,6.27
2018-03-07T17:20:31.967Z,6.37
2018-03-07T17:22:59.000Z,6.73
2018-03-07T17:25:26.021Z,6.70
2018-03-07T17:27:53.100Z,6.83
2018-03-07T17:30:21.563Z,7.10
2018-03-07T17:32:48.582Z,7.73
2018-03-07T17:35:16.511Z,8.07
2018-03-07T17:37:43.537Z,7.50
2018-03-07T17:40:12.718Z,12.13
2018-03-07T17:42:39.791Z,14.47
2018-03-07T17:45:06.809Z,13.40
2018-03-07T17:47:33.836Z,13.27
2018-03-07T17:50:03.978Z,13.87
2018-03-07T17:52:31.092Z,13.07
2018-03-07T17:54:58.141Z,12.77
2018-03-07T17:57:25.213Z,14.70
2018-03-07T17:59:52.235Z,16.13
2018-03-07T18:02:19.266Z,16.73
2018-03-07T18:04:46.350Z,16.60
2018-03-07T18:07:13.355Z,17.00
2018-03-07T18:09:40.382Z,21.07
2018-03-07T18:12:07.459Z,17.33
2018-03-07T18:14:34.477Z,16.10
2018-03-07T18:17:02.455Z,17.27
2018-03-07T18:19:29.539Z,18.13
2018-03-07T18:21:56.616Z,17.43
2018-03-07T18:24:24.970Z,18.70
2018-03-07T18:26:52.052Z,19.03
2018-03-07T18:29:20.042Z,16.90
2018-03-07T18:34:28.067Z,19.48
2018-03-07T18:39:34.437Z,17.60
2018-03-07T18:42:01.784Z,14.20
2018-03-07T18:44:28.803Z,14.17
2018-03-07T18:46:55.905Z,14.77
2018-03-07T18:49:22.939Z,16.10
2018-03-07T18:51:49.963Z,18.13
2018-03-07T18:54:17.941Z,19.67
2018-03-07T18:56:45.036Z,18.50
2018-03-07T18:59:12.070Z,18.93
2018-03-07T19:01:40.143Z,16.63
2018-03-07T19:04:07.137Z,16.00
2018-03-07T19:06:34.156Z,17.93
2018-03-07T19:09:04.329Z,17.03
2018-03-07T19:11:31.347Z,17.07
2018-03-07T19:13:58.367Z,15.80
2018-03-07T19:16:26.428Z,14.30
2018-03-07T19:18:53.320Z,15.80
2018-03-07T19:21:21.556Z,15.97
2018-03-07T19:23:49.550Z,15.27
2018-03-07T19:26:16.582Z,14.57
2018-03-07T19:28:43.759Z,13.13
2018-03-07T19:31:10.913Z,13.87
2018-03-07T19:33:37.951Z,14.53
2018-03-07T19:36:05.151Z,15.53
2018-03-07T19:38:32.542Z,14.87
2018-03-07T19:40:59.582Z,15.37
2018-03-07T19:46:04.620Z,19.10
2018-03-07T19:48:31.651Z,15.27
2018-03-07T19:50:58.783Z,13.80
2018-03-07T19:53:25.881Z,14.03
2018-03-07T19:55:53.015Z,14.00
2018-03-07T19:58:20.014Z,14.10
2018-03-07T20:00:47.332Z,15.30
2018-03-07T20:03:14.308Z,13.87
2018-03-07T20:05:41.338Z,15.37
2018-03-07T20:08:11.354Z,14.00
2018-03-07T20:10:38.393Z,14.53
2018-03-07T20:13:05.409Z,13.07
2018-03-07T20:15:32.508Z,13.23
2018-03-07T20:17:59.531Z,15.13
2018-03-07T20:20:26.553Z,16.17
2018-03-07T20:22:54.716Z,15.23
2018-03-07T20:25:20.925Z,16.30
2018-03-07T20:27:47.947Z,17.77
2018-03-07T20:30:15.022Z,20.07
2018-03-07T20:32:42.136Z,20.10
2018-03-07T20:35:09.166Z,21.50
2018-03-07T20:37:36.259Z,21.87
2018-03-07T20:40:03.277Z,22.00
2018-03-07T20:42:30.313Z,23.50
2018-03-07T20:44:57.402Z,24.13
2018-03-07T20:47:24.426Z,24.20
2018-03-07T20:49:51.450Z,25.17
2018-03-07T20:52:18.777Z,24.90
2018-03-07T20:54:45.814Z,23.43
2018-03-07T20:57:13.154Z,23.33
2018-03-07T20:59:40.940Z,22.90
2018-03-07T21:02:07.968Z,23.03
2018-03-07T21:04:35.009Z,22.40
2018-03-07T21:07:02.119Z,21.27
2018-03-07T21:12:07.718Z,30.30
2018-03-07T21:14:34.755Z,25.07
2018-03-07T21:17:01.861Z,23.60
2018-03-07T21:19:29.774Z,24.90
2018-03-07T21:21:56.983Z,24.37
2018-03-07T21:24:24.859Z,23.13
2018-03-07T21:26:51.913Z,25.43
2018-03-07T21:29:18.936Z,25.90
2018-03-07T21:31:45.962Z,24.53
2018-03-07T21:34:13.053Z,26.53
2018-03-07T21:36:40.076Z,26.23
2018-03-07T21:39:07.140Z,26.00
2018-03-07T21:41:34.204Z,27.60
2018-03-07T21:44:01.220Z,25.53
2018-03-07T21:46:28.240Z,21.07
2018-03-07T21:48:55.314Z,20.00
2018-03-07T21:51:22.356Z,17.87
2018-03-07T21:53:49.372Z,19.17
2018-03-07T21:56:16.431Z,17.17
2018-03-07T21:58:43.455Z,19.33
2018-03-07T22:01:10.582Z,19.67
2018-03-07T22:03:37.753Z,18.80
2018-03-07T22:06:04.793Z,20.27
2018-03-07T22:08:31.822Z,19.03
2018-03-07T22:10:58.915Z,19.97
2018-03-07T22:13:25.937Z,20.07
2018-03-07T22:15:52.974Z,21.67
2018-03-07T22:18:20.062Z,22.17
2018-03-07T22:20:47.097Z,22.83
2018-03-07T22:23:14.118Z,21.43
2018-03-07T22:25:41.228Z,21.73
2018-03-07T22:28:08.244Z,20.40
2018-03-07T22:30:35.314Z,21.27
2018-03-07T22:33:02.378Z,22.07
2018-03-07T22:38:08.013Z,29.25
2018-03-07T22:40:35.034Z,22.27
2018-03-07T22:43:02.459Z,18.80
2018-03-07T22:45:29.482Z,19.03
2018-03-07T22:47:56.511Z,18.93
2018-03-07T22:50:23.766Z,16.73
2018-03-07T22:52:50.800Z,17.63
2018-03-07T22:55:18.002Z,17.43
2018-03-07T22:57:44.965Z,18.37
2018-03-07T23:00:18.792Z,17.97
2018-03-07T23:02:45.818Z,17.47
2018-03-07T23:05:13.438Z,17.37
2018-03-07T23:07:41.463Z,17.07
2018-03-07T23:10:08.495Z,16.33
2018-03-07T23:12:35.555Z,15.63
2018-03-07T23:15:02.714Z,15.23
2018-03-07T23:17:30.566Z,15.83
2018-03-07T23:19:58.948Z,12.87
2018-03-07T23:22:25.913Z,13.03
2018-03-07T23:24:52.925Z,13.30
2018-03-07T23:27:20.009Z,13.13
2018-03-07T23:29:47.022Z,15.53
2018-03-07T23:32:14.033Z,15.27
2018-03-07T23:34:41.789Z,17.17
2018-03-07T23:37:08.773Z,17.87
2018-03-07T23:39:35.798Z,16.70
2018-03-07T23:42:02.877Z,16.77
2018-03-07T23:44:29.915Z,17.53
2018-03-07T23:46:56.945Z,18.23
2018-03-07T23:49:24.262Z,18.97
2018-03-07T23:51:51.292Z,19.17
2018-03-07T23:54:19.134Z,19.40
2018-03-07T23:56:46.256Z,19.50
2018-03-07T23:59:13.284Z,19.33
